Saint Petersburg, Florida
Current Conditions -  °F | °C
As of 2:10 AM on Sunday 23 Nov 2014 (Local Time) from KSPG Reporting Station
Broken Clouds Broken Clouds  
Wind Chill: 68°   Ceiling: 6000
Heat Index: 68°   Visibility: 8mi
Dew Point: 66°   Wind: 10mph
Humidity: 93%   Direction: 130°SE
Pressure: 30"   Gusts: NA
Location:  27.77°N, 82.63°W
Report Text: KSPG 230710Z AUTO 13009KT 8SM SCT016 BKN060 20/19 A3000 RMK AO2 T02000189
Loading
Personal Weather Stations






























Interactive Weather Map New forecast layout! Learn more

10-Day Weather Forecast

Advertisements
Track Severe Weather on mobile